Latest Weather Observations for Horn Island

IDQ60801

Issued at 6:35 pm EST Wednesday 20 August 2014 (issued every 30 minutes, with the page automatically refreshed every 10 minutes)

About weather observations | Map of weather stations | Latest weather observations for QLD | Other Formats
Station Details ID: 027058 Name: HORN ISLAND Lat: -10.58 Lon: 142.29 Height: 4.0 m
Data from the previous 72 hours. | See also: Recent months at Horn Island
Date/Time
EST
Temp
°C
App
Temp
°C
Dew
Point
Rel
Hum
%
Delta-T
°C
Wind Press
QNH
hPa
Press
MSL
hPa
Rain
since 9 am
mm
Dir
 
Spd
km/h
Gust
km/h
Spd
kts
Gust
kts
20/06:30pm 25.4 25.8 21.7 80 2.5 ESE 22 28 12 15 1012.4 - 0.0
20/06:00pm 25.7 26.3 21.4 77 2.9 E 20 28 11 15 1012.0 1012.0 0.0
20/05:30pm 25.9 26.2 21.6 77 2.9 E 22 33 12 18 1011.9 - 0.0
20/05:00pm 26.0 25.6 21.7 77 2.9 E 26 33 14 18 1011.8 - 0.0
20/04:30pm 26.5 26.4 21.5 74 3.3 E 24 32 13 17 1011.7 - 0.0
20/04:00pm 26.8 26.2 21.3 72 3.7 E 26 32 14 17 1011.6 - 0.0
20/03:30pm 27.6 26.3 19.9 63 5.0 E 26 32 14 17 1011.6 - 0.0
20/03:00pm 27.9 27.9 21.0 66 4.6 E 22 30 12 16 1011.7 1011.7 0.0
20/02:30pm 27.6 27.2 20.9 67 4.4 E 24 32 13 17 1012.0 - 0.0
20/02:00pm 28.5 27.8 21.0 64 5.0 E 26 32 14 17 1012.3 - 0.0
20/01:30pm 27.7 27.4 20.3 64 4.9 ENE 22 30 12 16 1013.0 - 0.0
20/01:00pm 27.8 27.8 20.9 66 4.6 E 22 30 12 16 1013.4 - 0.0
20/12:30pm 28.0 27.5 20.8 65 4.8 E 24 30 13 16 1013.8 - 0.0
20/12:00pm 27.9 27.5 20.2 63 5.0 ESE 22 30 12 16 1014.4 1014.4 0.0
20/11:30am 28.5 28.5 20.2 60 5.5 ESE 20 28 11 15 1014.6 - 0.0
20/11:00am 27.6 27.1 20.7 66 4.6 E 24 32 13 17 1014.9 - 0.0
20/10:30am 27.5 26.9 20.6 66 4.5 E 24 30 13 16 1015.3 - 0.0
20/10:00am 26.8 26.5 20.4 68 4.2 SE 22 30 12 16 1015.5 - 0.0
20/09:30am 26.4 27.6 21.4 74 3.3 ESE 17 24 9 13 1015.7 - 0.0
20/09:29am 26.2 27.3 21.2 74 3.3 ESE 17 24 9 13 1015.7 - 0.0
20/09:00am 26.2 26.9 21.2 74 3.3 ESE 19 28 10 15 1015.5 1015.5 0.0
20/08:55am 26.2 26.6 21.0 73 3.4 E 20 26 11 14 1015.5 - 0.0
20/08:30am 25.8 26.5 21.2 76 3.0 E 19 26 10 14 1015.2 - 0.0
20/08:00am 25.1 26.1 21.0 78 2.7 SE 17 24 9 13 1014.8 - 0.0
20/07:30am 24.6 26.0 21.1 81 2.3 SE 15 20 8 11 1014.4 - 0.0
20/07:00am 24.2 25.5 20.9 82 2.2 ESE 15 20 8 11 1014.0 - 0.0
20/06:30am 24.3 26.1 21.2 83 2.0 SE 13 19 7 10 1014.0 - 0.0
20/06:00am 24.4 26.2 21.1 82 2.2 SE 13 19 7 10 1013.7 1013.7 0.0
20/05:30am 24.5 25.6 21.2 82 2.2 ESE 17 22 9 12 1013.7 - 0.0
20/05:00am 24.4 25.8 21.1 82 2.2 ESE 15 22 8 12 1013.5 - 0.0
20/04:30am 24.4 25.3 20.9 81 2.3 ESE 17 24 9 13 1013.2 - 0.0
20/04:00am 24.4 25.4 21.1 82 2.2 ESE 17 22 9 12 1013.3 - 0.0
20/03:38am 24.5 25.2 21.2 82 2.2 ESE 19 24 10 13 1013.4 - 0.0
20/03:30am 24.5 25.0 21.2 82 2.2 ESE 20 26 11 14 1013.4 - 0.0
20/03:20am 24.6 25.8 21.5 83 2.1 ESE 17 22 9 12 1013.5 - 0.0
20/03:00am 24.5 25.2 21.2 82 2.2 ESE 19 26 10 14 1013.5 1013.5 0.0
20/02:30am 24.6 25.0 20.9 80 2.4 ESE 20 28 11 15 1013.7 - 0.0
20/02:00am 24.6 25.1 20.9 80 2.4 ESE 19 26 10 14 1013.9 - 0.0
20/01:30am 24.7 24.6 20.8 79 2.6 ESE 22 30 12 16 1014.1 - 0.0
20/01:00am 24.7 25.0 20.8 79 2.6 ESE 20 30 11 16 1014.5 - 0.0
20/12:30am 24.9 24.5 21.0 79 2.6 ESE 24 32 13 17 1014.8 - 0.0
20/12:00am 24.9 25.0 21.2 80 2.4 ESE 22 30 12 16 1015.1 1015.1 0.0
 
Date/Time
EST
Temp
°C
App
Temp
°C
Dew
Point
Rel
Hum
%
Delta-T
°C
Wind Press
QNH
hPa
Press
MSL
hPa
Rain
since 9 am
mm
Dir
 
Spd
km/h
Gust
km/h
Spd
kts
Gust
kts
19/11:30pm 24.9 25.7 21.4 81 2.3 ESE 19 26 10 14 1015.2 - 0.0
19/11:00pm 24.8 26.3 21.3 81 2.3 ESE 15 20 8 11 1015.0 - 0.0
19/10:30pm 24.7 25.9 21.4 82 2.2 ESE 17 20 9 11 1015.1 - 0.0
19/10:00pm 24.8 26.0 21.5 82 2.2 ESE 17 20 9 11 1015.1 - 0.0
19/09:30pm 24.9 26.1 21.4 81 2.3 ESE 17 22 9 12 1015.1 - 0.0
19/09:00pm 24.8 25.9 21.3 81 2.3 SE 17 24 9 13 1014.8 1014.8 0.0
19/08:30pm 24.8 25.9 21.3 81 2.3 SE 17 24 9 13 1014.4 - 0.0
19/08:00pm 24.8 25.6 21.3 81 2.3 SE 19 26 10 14 1014.2 - 0.0
19/07:30pm 24.8 25.0 21.3 81 2.3 ESE 22 30 12 16 1013.7 - 0.0
19/07:00pm 24.9 24.9 21.0 79 2.6 ESE 22 28 12 15 1013.3 - 0.0
19/06:30pm 25.2 25.9 21.5 80 2.5 ESE 20 26 11 14 1013.0 - 0.0
19/06:00pm 25.7 26.2 21.1 76 3.0 ESE 20 28 11 15 1012.8 1012.8 0.0
19/05:30pm 26.1 26.3 21.3 75 3.2 ESE 22 30 12 16 1012.6 - 0.0
19/05:00pm 26.3 26.2 21.5 75 3.2 E 24 32 13 17 1012.4 - 0.0
19/04:30pm 26.9 26.8 21.4 72 3.7 ESE 24 32 13 17 1012.2 - 0.0
19/04:00pm 27.6 27.9 21.6 70 4.0 E 22 33 12 18 1012.0 - 0.0
19/03:30pm 27.3 25.4 20.9 68 4.2 ESE 32 37 17 20 1012.0 - 0.0
19/03:00pm 27.5 27.4 21.5 70 4.0 E 24 32 13 17 1012.1 1012.1 0.0
19/02:30pm 27.5 26.9 21.3 69 4.1 E 26 33 14 18 1012.3 - 0.0
19/02:00pm 28.2 26.8 20.5 63 5.1 E 28 35 15 19 1012.7 - 0.0
19/01:30pm 28.9 28.4 21.4 64 5.0 E 26 32 14 17 1013.3 - 0.0
19/01:00pm 28.2 27.7 20.7 63 5.0 E 24 32 13 17 1013.8 - 0.0
19/12:30pm 28.1 27.3 20.1 62 5.2 E 24 32 13 17 1014.3 - 0.0
19/12:00pm 28.6 28.4 20.6 62 5.3 E 22 28 12 15 1014.8 1014.8 0.0
19/11:30am 28.1 28.1 20.9 65 4.8 ESE 22 32 12 17 1015.3 - 0.0
19/11:00am 28.0 28.4 21.8 69 4.2 ESE 22 30 12 16 1015.7 - 0.0
19/10:30am 27.5 28.2 21.5 70 4.0 ESE 20 28 11 15 1015.9 - 0.0
19/10:04am 26.8 27.2 20.9 70 3.9 SE 20 32 11 17 1016.0 - 0.0
19/10:00am 27.2 27.6 21.0 69 4.1 SE 20 33 11 18 1016.0 - 0.0
19/09:30am 26.4 26.9 20.9 72 3.6 SSE 19 28 10 15 1016.1 - 0.0
19/09:09am 26.3 27.3 21.7 76 3.1 SSE 19 24 10 13 1016.1 - 0.0
19/09:00am 26.2 27.1 21.6 76 3.1 SSE 19 26 10 14 1016.1 1016.1 0.0
19/08:30am 25.1 25.8 21.6 81 2.3 SSE 20 28 11 15 1015.8 - 0.0
19/08:00am 24.3 25.6 21.6 85 1.8 S 17 22 9 12 1015.7 - 0.0
19/07:30am 24.1 25.9 21.8 87 1.5 SSE 15 19 8 10 1015.4 - 0.0
19/07:00am 23.9 25.7 21.8 88 1.4 SSE 15 20 8 11 1015.1 - 0.0
19/06:30am 23.9 25.7 21.8 88 1.4 SSE 15 20 8 11 1014.6 - 0.0
19/06:25am 23.9 25.7 21.8 88 1.4 SSE 15 20 8 11 1014.6 - 0.0
19/06:00am 24.0 26.3 22.1 89 1.3 S 13 17 7 9 1014.3 1014.3 0.0
19/05:30am 24.1 26.4 22.0 88 1.4 S 13 20 7 11 1014.1 - 0.0
19/05:00am 24.2 26.9 22.1 88 1.4 S 11 19 6 10 1014.0 - 0.0
19/04:30am 24.3 26.2 22.0 87 1.5 SSE 15 22 8 12 1013.8 - 0.0
19/04:00am 24.2 25.8 22.1 88 1.4 SSE 17 22 9 12 1013.8 - 0.0
19/03:30am 24.2 27.0 22.3 89 1.3 S 11 15 6 8 1013.7 - 0.0
19/03:00am 24.1 26.5 22.2 89 1.3 S 13 17 7 9 1013.7 1013.7 0.0
19/02:30am 24.1 27.1 22.0 88 1.4 SSE 9 13 5 7 1014.0 - 0.0
19/02:00am 24.0 27.0 21.9 88 1.4 S 9 13 5 7 1014.2 - 0.0
19/01:30am 24.2 27.2 21.9 87 1.5 SSE 9 13 5 7 1014.4 - 0.0
19/01:00am 24.4 27.3 21.7 85 1.8 SSE 9 15 5 8 1014.6 - 0.0
19/12:30am 24.5 27.3 21.6 84 1.9 SSE 9 11 5 6 1014.8 - 0.0
19/12:00am 24.5 27.3 21.6 84 1.9 SSE 9 15 5 8 1014.9 1014.9 0.0
 
Date/Time
EST
Temp
°C
App
Temp
°C
Dew
Point
Rel
Hum
%
Delta-T
°C
Wind Press
QNH
hPa
Press
MSL
hPa
Rain
since 9 am
mm
Dir
 
Spd
km/h
Gust
km/h
Spd
kts
Gust
kts
18/11:30pm 24.4 26.2 21.1 82 2.2 SSE 13 15 7 8 1014.7 - 0.0
18/11:00pm 24.8 27.2 20.9 79 2.6 SSE 9 15 5 8 1014.7 - 0.0
18/10:30pm 24.7 27.1 20.8 79 2.6 SSE 9 11 5 6 1014.7 - 0.0
18/10:00pm 23.9 25.6 19.4 76 2.9 S 9 11 5 6 1014.8 - 0.0
18/09:30pm 23.7 25.9 19.6 78 2.6 S 7 9 4 5 1014.9 - 0.0
18/09:00pm 24.0 26.1 20.1 79 2.5 S 9 11 5 6 1014.6 1014.6 0.0
18/08:30pm 24.3 26.4 20.2 78 2.7 S 9 13 5 7 1014.3 - 0.0
18/08:00pm 24.8 27.0 20.3 76 2.9 SSE 9 15 5 8 1013.9 - 0.0
18/07:30pm 25.1 26.7 20.8 77 2.8 SE 13 17 7 9 1013.3 - 0.0
18/07:00pm 25.2 26.8 22.1 83 2.1 ESE 17 26 9 14 1012.9 - 0.0
18/06:30pm 25.6 27.2 22.1 81 2.3 ESE 17 22 9 12 1012.7 - 0.0
18/06:00pm 26.0 27.0 21.7 77 2.9 E 19 24 10 13 1012.5 1012.5 0.0
18/05:30pm 26.3 27.5 22.2 78 2.8 E 19 26 10 14 1012.3 - 0.0
18/05:00pm 26.6 27.4 21.8 75 3.2 E 20 30 11 16 1012.2 - 0.0
18/04:30pm 26.7 27.2 21.2 72 3.6 E 20 26 11 14 1012.0 - 0.0
18/04:00pm 26.9 27.2 20.7 69 4.1 E 20 28 11 15 1012.0 - 0.0
18/03:30pm 27.9 28.2 20.7 65 4.8 E 20 26 11 14 1012.1 - 0.0
18/03:00pm 27.9 27.8 19.9 61 5.2 E 20 28 11 15 1012.0 1012.0 0.0
18/02:30pm 28.2 27.7 20.7 63 5.0 E 24 30 13 16 1012.3 - 0.0
18/02:00pm 27.8 28.3 21.1 67 4.4 E 20 30 11 16 1012.8 - 0.0
18/01:30pm 27.7 27.8 20.3 64 4.9 E 20 26 11 14 1013.4 - 0.0
18/01:00pm 28.0 28.5 20.8 65 4.8 NE 19 24 10 13 1013.9 - 0.0
18/12:30pm 28.1 29.2 20.4 63 5.1 ENE 15 22 8 12 1014.2 - 0.0
18/12:00pm 27.7 28.3 20.3 64 4.9 E 17 22 9 12 1014.5 1014.5 0.0
18/11:30am 27.6 28.6 20.2 64 4.8 E 15 20 8 11 1014.8 - 0.0
18/11:00am 27.4 28.1 19.7 63 5.0 SE 15 22 8 12 1015.1 - 0.0
18/10:30am 27.5 28.0 20.1 64 4.8 SSE 17 22 9 12 1015.2 - 0.0
18/10:00am 26.8 27.2 19.9 66 4.5 ESE 17 22 9 12 1015.5 - 0.0
18/09:30am 26.2 27.3 19.6 67 4.3 S 13 17 7 9 1015.6 - 0.0
18/09:00am 25.0 25.7 18.9 69 3.9 S 13 19 7 10 1015.6 1015.6 0.0
18/08:30am 24.4 24.2 17.6 66 4.2 S 15 22 8 12 1015.3 - 0.0
18/08:00am 23.6 22.3 16.9 66 4.1 S 19 24 10 13 1015.0 - 0.0
18/07:30am 22.7 22.3 17.2 71 3.4 SSW 15 20 8 11 1014.8 - 0.0
18/07:00am 22.0 22.0 17.2 74 2.9 S 13 17 7 9 1014.6 - 0.0
18/06:30am 21.8 21.9 17.4 76 2.7 SSW 13 17 7 9 1014.3 - 0.0
18/06:00am 22.1 22.4 17.9 77 2.6 SSW 13 17 7 9 1014.2 1014.2 0.0
18/05:30am 22.4 22.8 18.2 77 2.6 S 13 17 7 9 1014.0 - 0.0
18/05:00am 22.1 23.3 18.3 79 2.4 SSW 9 13 5 7 1013.7 - 0.0
18/04:30am 22.4 23.4 18.6 79 2.4 S 11 13 6 7 1013.6 - 0.0
18/04:00am 22.3 23.2 18.5 79 2.4 S 11 13 6 7 1013.3 - 0.0
18/03:30am 21.7 23.2 18.1 80 2.2 S 7 9 4 5 1013.2 - 0.0
18/03:00am 21.6 22.5 18.4 82 2.0 S 11 13 6 7 1013.1 1013.1 0.0
18/02:30am 21.1 22.0 18.3 84 1.7 SSW 11 11 6 6 1013.2 - 0.0
18/02:00am 21.5 22.9 18.7 84 1.8 S 9 9 5 5 1013.4 - 0.0
18/01:30am 21.6 23.1 19.0 85 1.6 SSW 9 11 5 6 1013.6 - 0.0
18/01:00am 21.7 23.2 18.9 84 1.8 SSW 9 11 5 6 1013.7 - 0.0
18/12:30am 22.5 24.5 19.1 81 2.2 SSW 7 11 4 6 1013.9 - 0.0
18/12:00am 22.9 24.5 19.1 79 2.4 SSW 9 11 5 6 1014.0 1014.0 0.0
 
Date/Time
EST
Temp
°C
App
Temp
°C
Dew
Point
Rel
Hum
%
Delta-T
°C
Wind Press
QNH
hPa
Press
MSL
hPa
Rain
since 9 am
mm
Dir
 
Spd
km/h
Gust
km/h
Spd
kts
Gust
kts
17/11:30pm 23.2 24.4 19.1 78 2.6 SSW 11 15 6 8 1014.0 - 0.0
17/11:00pm 23.5 24.6 18.8 75 3.0 SSW 11 13 6 7 1014.1 - 0.0
17/10:30pm 23.9 24.7 19.0 74 3.1 SSW 13 15 7 8 1014.0 - 0.0
17/10:00pm 23.4 25.0 19.1 77 2.7 SSW 9 13 5 7 1014.0 - 0.0
17/09:30pm 23.7 24.9 19.0 75 3.0 SSW 11 13 6 7 1013.7 - 0.0
17/09:00pm 23.9 25.1 19.0 74 3.1 SSW 11 15 6 8 1013.4 1013.4 0.0
17/08:30pm 24.1 25.3 19.0 73 3.2 SSW 11 13 6 7 1013.2 - 0.0
17/08:00pm 24.0 25.3 18.4 71 3.5 S 9 11 5 6 1013.0 - 0.0
17/07:30pm 24.4 25.2 18.1 68 4.0 SSW 11 13 6 7 1012.4 - 0.0
17/07:00pm 24.9 25.8 17.6 64 4.6 SSW 9 15 5 8 1012.0 - 0.0

Other Formats:

Comma delimited format used in spreadsheet applications
http://www.bom.gov.au/fwo/IDQ60801/IDQ60801.94174.axf

JavaScript Object Notation format (JSON) in row-major order
http://www.bom.gov.au/fwo/IDQ60801/IDQ60801.94174.json